• Join FlightAware (Why Join?)
  • Login
  • US Flag 
03:23PM EST


 

Airport Tracker/Info


-or-


 

Live Flight TrackerFlight Track Log ✈ SWA1535 ✈ 26-Apr-2013 ✈ KOMA - KDEN

Flight Track Log - Related Links

Times and Time Zones

All times are in EDT time to prevent confusion due to time zone crossing. See the SWA1535 flight status page for this flight to view local times or setup timezone preferences in your user account.

Time Position Orientation Groundspeed Altitude Reporting Facility
EDT Latitude Longitude Course Direction KTS MPH feet Rate Location/Type
09:27PM 41.2569 -95.8853 176° South 179 206 3,500  Level Minneapolis Center
09:28PM 41.2117 -95.9331 218° Southwest 249 287 6,000 3,122 Climbing Minneapolis Center
09:29PM 41.1958 -96.0322 258° West 279 321 9,900 3,290 Climbing Minneapolis Center
09:30PM 41.2042 -96.1514 275° West 317 365 12,800 3,097 Climbing Minneapolis Center
09:31PM 41.2158 -96.2819 277° West 344 396 16,300 2,613 Climbing Minneapolis Center
09:32PM 41.2278 -96.4247 276° West 378 435 18,200 2,419 Climbing Minneapolis Center
09:33PM 41.2431 -96.6097 276° West 413 475 21,300 2,758 Climbing Minneapolis Center
09:34PM 41.2567 -96.7703 276° West 432 497 23,900 2,226 Climbing Minneapolis Center
09:35PM 41.2703 -96.9331 276° West 442 509 25,900 2,146 Climbing Minneapolis Center
09:36PM 41.2831 -97.0997 276° West 451 519 28,300 2,244 Climbing Minneapolis Center
09:37PM 41.2964 -97.2656 276° West 451 519 30,500 2,371 Climbing Minneapolis Center
09:38PM 41.3103 -97.4439 276° West 447 514 33,200 2,371 Climbing Minneapolis Center
09:39PM 41.3217 -97.5994 276° West 432 497 35,400 1,355 Climbing Minneapolis Center
09:40PM 41.3342 -97.7714 276° West 422 486 36,000 293 Climbing Minneapolis Center
09:41PM 41.3458 -97.9297 276° West 427 491 36,000 390 Level Minneapolis Center
09:42PM 41.3211 -98.0847 258° West 431 496 36,800 927 Climbing Minneapolis Center
09:43PM 41.2894 -98.2519 256° West 429 494 37,900 585 Climbing Minneapolis Center
09:44PM 41.2597 -98.4036 255° West 426 490 38,000 48 Climbing Minneapolis Center
09:45PM 41.2322 -98.5419 255° West 426 490 38,000  Level Minneapolis Center
09:46PM 41.2017 -98.6956 255° West 428 493 38,000  Level Minneapolis Center
09:47PM 41.1703 -98.8489 255° West 430 495 38,000  Level Minneapolis Center
09:48PM 41.1397 -98.9947 254° West 431 496 38,000  Level Denver Center
09:49PM 41.1067 -99.1575 255° West 433 498 38,000  Level Denver Center
09:50PM 41.0750 -99.3108 255° West 433 498 38,000  Level Denver Center
09:51PM 41.0428 -99.4661 255° West 436 502 38,000  Level Denver Center
09:52PM 41.0106 -99.6214 255° West 437 503 38,000  Level Denver Center
09:53PM 40.9775 -99.7758 254° West 437 503 38,000  Level Denver Center
09:54PM 40.9392 -99.9558 254° West 437 503 38,000  Level Denver Center
09:55PM 40.9078 -100.1036 254° West 436 502 38,000  Level Denver Center
09:56PM 40.8703 -100.2756 254° West 436 502 38,000  Level Denver Center
09:57PM 40.8381 -100.4239 254° West 438 504 38,000  Level Denver Center
09:58PM 40.8056 -100.5717 254° West 437 503 38,000  Level Denver Center
09:59PM 40.7686 -100.7506 255° West 445 512 38,000  Level Denver Center
10:00PM 40.7444 -100.9094 259° West 444 511 38,000  Level Denver Center
10:01PM 40.7194 -101.0636 258° West 448 516 38,000  Level Denver Center
10:02PM 40.6889 -101.2408 257° West 445 512 38,000  Level Denver Center
10:03PM 40.6622 -101.3919 257° West 442 509 38,000  Level Denver Center
10:05PM 40.6308 -101.5689 257° West 444 511 38,000  Level Denver Center
10:06PM 40.6017 -101.7206 256° West 446 513 38,000  Level Denver Center
10:07PM 40.5703 -101.8986 257° West 449 517 38,000  Level Denver Center
10:08PM 40.5433 -102.0506 257° West 445 512 38,000  Level Denver Center
10:09PM 40.5106 -102.2275 256° West 446 513 38,000  Level Denver Center
10:10PM 40.4819 -102.3789 256° West 446 513 38,000  Level Denver Center
10:11PM 40.4500 -102.5544 257° West 442 509 38,000  Level Denver Center
10:12PM 40.4200 -102.7119 256° West 442 509 38,000 -976 Level Denver Center
10:13PM 40.3908 -102.8697 256° West 441 507 36,000 -2,049 Descending Denver Center
10:14PM 40.3608 -103.0292 256° West 447 514 33,800 -2,516 Descending Denver Center
10:15PM 40.3286 -103.1908 255° West 454 522 30,800 -2,613 Descending Denver Center
10:16PM 40.2994 -103.3478 256° West 441 507 28,400 -2,274 Descending Denver Center
10:17PM 40.2697 -103.4994 256° West 428 493 26,100 -2,371 Descending Denver Center
10:18PM 40.2367 -103.6686 256° West 409 471 23,500 -2,081 Descending Denver Center
10:19PM 40.2094 -103.8064 256° West 406 467 21,800 -1,403 Descending Denver Center
10:20PM 40.1694 -103.9211 246° West 352 405 20,600 -1,403 Descending Denver Center
10:21PM 40.1169 -104.0350 239° Southwest 339 390 18,900 -1,452 Descending Denver Center
10:22PM 40.0706 -104.1333 238° Southwest 315 362 17,600 -1,463 Descending Denver Center
10:23PM 40.0225 -104.2375 239° Southwest 309 356 15,900 -1,561 Descending Denver Center
10:24PM 39.9800 -104.3286 239° Southwest 298 343 14,400 -1,667 Descending Denver Center
10:25PM 39.9667 -104.4000 256° West 293 337 12,900 -1,755 Descending Denver TRACON
10:26PM 39.9667 -104.5167 270° West 292 336 11,300 -950 Descending Denver TRACON
10:27PM 39.9667 -104.6167 270° West 278 320 11,000 -225 Descending Denver TRACON
10:27PM 39.9597 -104.6419 250° West 275 316 11,000 73 Level Denver Center
10:28PM 39.9581 -104.7300 269° West 227 261 11,100 -387 Climbing Denver Center
10:29PM 39.9561 -104.8094 268° West 221 254 10,200 -1,122 Descending Denver Center
10:30PM 39.9556 -104.8944 270° West 220 253 8,800 -1,024 Descending Denver Center
10:31PM 39.9444 -104.9697 259° West 220 253 8,100 -387 Descending Denver Center
10:32PM 39.8831 -104.9842 190° South 212 244 8,000 -48 Descending Denver Center
10:33PM 39.8461 -104.9517 146° Southeast 165 190 8,000 -194 Level Denver Center
10:34PM 39.8422 -104.8856 94° East 173 199 7,600 -629 Descending Denver Center
10:35PM 39.8419 -104.8189 90° East 180 207 6,700 -829 Descending Denver Center
10:36PM 39.8411 -104.7644 91° East 153 176 5,900 -683 Descending Denver Center
10:38PM 39.8408 -104.7114 90° East 144 166 5,300 -581 Descending Denver Center
10:40PM 39.8500 -104.6667 94° East  Level FlightAware Approximate
10:47PM 39.8617 -104.6732 94° East  Level Estimated
10:48PM 39.8617 -104.6732 94° East  Level Estimated